Time;durP1;ratioP1;P1;durP2;ratioP2;P2;SDS_P1;SDS_P2;PMS_P1;PMS_P2;Temp;Humidity;BMP_temperature;BMP_pressure;BME280_temperature;BME280_humidity;BME280_pressure;Samples;Min_cycle;Max_cycle;Signal;HPM_P1;HPM_P2
2022/02/10 00:14:21;;;;;;;24.65;6.97;;;;;;;;;;5019445;28;20048;-37
2022/02/10 00:22:00;;;;;;;37.72;4.15;;;;;;;;;;5018748;28;20022;-39
2022/02/10 00:35:25;;;;;;;34.63;6.00;;;;;;;;;;5013703;28;20080;-39
2022/02/10 00:37:59;;;;;;;39.70;5.88;;;;;;;;;;5012182;28;20057;-39
2022/02/10 00:40:30;;;;;;;44.85;5.72;;;;;;;;;;5011648;28;20632;-39
2022/02/10 00:43:00;;;;;;;39.28;4.95;;;;;;;;;;5008368;28;20026;-38
2022/02/10 00:45:32;;;;;;;37.85;5.13;;;;;;;;;;4992074;28;20120;-37
2022/02/10 00:48:02;;;;;;;31.58;4.07;;;;;;;;;;5013833;28;20033;-38
2022/02/10 00:50:30;;;;;;;29.77;4.22;;;;;;;;;;5020566;28;20057;-38
2022/02/10 00:53:03;;;;;;;30.27;3.75;;;;;;;;;;5022251;28;20034;-37
2022/02/10 00:55:33;;;;;;;34.42;4.00;;;;;;;;;;5026171;28;20037;-39
2022/02/10 00:58:04;;;;;;;28.60;4.13;;;;;;;;;;5021090;28;20038;-39
2022/02/10 01:24:36;;;;;;;34.88;4.00;;;;;;;;;;5020905;28;20048;-38
2022/02/10 01:29:49;;;;;;;19.42;3.20;;;;;;;;;;5019517;28;20052;-39
2022/02/10 01:32:18;;;;;;;27.13;3.38;;;;;;;;;;5011576;28;20080;-39
2022/02/10 01:34:49;;;;;;;23.08;3.30;;;;;;;;;;5015066;28;20847;-38
2022/02/10 01:37:17;;;;;;;24.27;2.72;;;;;;;;;;5021706;28;20076;-39
2022/02/10 01:40:01;;;;;;;20.65;3.00;;;;;;;;;;5015062;28;20499;-39
2022/02/10 02:04:17;;;;;;;21.05;2.50;;;;;;;;;;5032605;28;20518;-45
2022/02/10 02:06:47;;;;;;;25.80;2.78;;;;;;;;;;5031691;28;20037;-45
2022/02/10 02:09:15;;;;;;;17.85;2.17;;;;;;;;;;5032934;28;20396;-46
2022/02/10 02:11:44;;;;;;;26.27;2.92;;;;;;;;;;5031218;28;20040;-46
2022/02/10 02:14:19;;;;;;;15.25;2.90;;;;;;;;;;5017004;28;20042;-45
2022/02/10 02:16:47;;;;;;;17.73;2.00;;;;;;;;;;5011901;28;20496;-46
2022/02/10 02:19:14;;;;;;;17.55;2.42;;;;;;;;;;5019361;28;20095;-47
2022/02/10 02:21:42;;;;;;;8.98;1.90;;;;;;;;;;5022266;28;20018;-45
2022/02/10 02:24:13;;;;;;;14.25;2.13;;;;;;;;;;5016217;28;20037;-46
2022/02/10 02:26:41;;;;;;;17.00;2.10;;;;;;;;;;5012004;28;20041;-46
2022/02/10 02:29:11;;;;;;;14.10;2.17;;;;;;;;;;5011847;28;20037;-45
2022/02/10 02:31:44;;;;;;;16.73;2.25;;;;;;;;;;5012431;28;20059;-45
2022/02/10 02:34:52;;;;;;;13.43;2.50;;;;;;;;;;5012404;28;20496;-45
2022/02/10 03:04:49;;;;;;;20.60;2.17;;;;;;;;;;5031653;28;20087;-45
2022/02/10 03:10:29;;;;;;;13.55;2.33;;;;;;;;;;5030319;28;20116;-46
2022/02/10 03:12:53;;;;;;;28.25;3.20;;;;;;;;;;5031116;28;20029;-45
2022/02/10 03:15:31;;;;;;;21.75;2.92;;;;;;;;;;5030664;28;20036;-45
2022/02/10 03:18:15;;;;;;;21.83;2.35;;;;;;;;;;5026746;28;20033;-45
2022/02/10 03:21:04;;;;;;;17.80;2.42;;;;;;;;;;5030593;28;20037;-45
2022/02/10 04:02:46;;;;;;;15.70;2.25;;;;;;;;;;5030174;28;20155;-43
2022/02/10 04:07:59;;;;;;;14.13;2.33;;;;;;;;;;5030321;28;20034;-45
2022/02/10 04:16:04;;;;;;;14.43;1.80;;;;;;;;;;5030324;28;20082;-46
2022/02/10 04:21:19;;;;;;;7.60;1.60;;;;;;;;;;5029686;28;20068;-45
2022/02/10 04:37:45;;;;;;;14.75;2.38;;;;;;;;;;5030823;28;20063;-44
2022/02/10 04:43:31;;;;;;;9.63;1.85;;;;;;;;;;5009719;28;20157;-44
2022/02/10 04:56:40;;;;;;;9.88;1.95;;;;;;;;;;5026387;28;20049;-46
2022/02/10 05:24:09;;;;;;;11.80;2.00;;;;;;;;;;5032954;28;20120;-46
2022/02/10 05:34:44;;;;;;;16.65;2.25;;;;;;;;;;5033119;28;20041;-45
2022/02/10 05:37:13;;;;;;;7.35;1.83;;;;;;;;;;5032670;28;20398;-46
2022/02/10 05:39:45;;;;;;;10.02;2.00;;;;;;;;;;5032044;28;20042;-45
2022/02/10 05:47:51;;;;;;;12.65;1.90;;;;;;;;;;5032653;28;20102;-45
2022/02/10 05:55:58;;;;;;;9.77;2.40;;;;;;;;;;5012972;28;20542;-45
2022/02/10 05:58:35;;;;;;;12.40;2.00;;;;;;;;;;5012137;28;20049;-45
2022/02/10 06:50:38;;;;;;;12.27;2.58;;;;;;;;;;5031085;28;20041;-45
2022/02/10 06:53:26;;;;;;;14.38;2.35;;;;;;;;;;5031696;28;20060;-45
2022/02/10 07:02:46;;;;;;;15.73;2.10;;;;;;;;;;5031865;28;20090;-40
2022/02/10 08:01:00;;;;;;;11.35;2.33;;;;;;;;;;5031414;28;20029;-39
2022/02/10 09:01:01;;;;;;;8.68;2.10;;;;;;;;;;5037033;28;20459;-37
2022/02/10 09:03:47;;;;;;;9.10;2.17;;;;;;;;;;5037041;28;20083;-37
2022/02/10 09:18:09;;;;;;;11.20;2.55;;;;;;;;;;5036146;28;20038;-37
2022/02/10 10:01:02;;;;;;;10.75;2.47;;;;;;;;;;5003249;28;20154;-35
2022/02/10 10:03:36;;;;;;;23.70;2.63;;;;;;;;;;5032761;28;20090;-32
2022/02/10 10:06:24;;;;;;;23.52;2.42;;;;;;;;;;5032186;28;20056;-32
2022/02/10 10:09:16;;;;;;;16.27;2.45;;;;;;;;;;5032978;28;20038;-31
2022/02/10 10:19:51;;;;;;;13.05;2.30;;;;;;;;;;5032732;28;20443;-34
2022/02/10 10:22:43;;;;;;;14.45;2.10;;;;;;;;;;5032498;28;20484;-32
2022/02/10 10:25:22;;;;;;;13.07;2.53;;;;;;;;;;5032257;28;20152;-31
2022/02/10 10:46:13;;;;;;;13.70;2.10;;;;;;;;;;5032175;28;20043;-33
2022/02/10 10:53:50;;;;;;;13.13;2.15;;;;;;;;;;5007831;28;20128;-30
2022/02/10 10:56:27;;;;;;;15.05;1.95;;;;;;;;;;5032228;28;20037;-31
2022/02/10 11:07:40;;;;;;;39.80;3.15;;;;;;;;;;5031331;28;20125;-33
2022/02/10 11:37:22;;;;;;;17.83;2.20;;;;;;;;;;5027739;28;20044;-31
2022/02/10 11:40:04;;;;;;;15.93;2.17;;;;;;;;;;5030162;28;20040;-31
2022/02/10 11:42:48;;;;;;;19.30;2.30;;;;;;;;;;5031176;28;20405;-33
2022/02/10 11:48:19;;;;;;;15.87;2.13;;;;;;;;;;5030685;28;20709;-33
2022/02/10 12:31:15;;;;;;;20.08;2.83;;;;;;;;;;5029505;28;20044;-33
2022/02/10 12:36:23;;;;;;;24.42;2.90;;;;;;;;;;5019591;28;20108;-31
2022/02/10 13:02:39;;;;;;;23.23;2.55;;;;;;;;;;5029923;28;20156;-31
2022/02/10 14:13:23;;;;;;;22.15;3.65;;;;;;;;;;4991715;28;20113;-32
2022/02/10 14:16:07;;;;;;;34.03;4.22;;;;;;;;;;5003293;28;20104;-31
2022/02/10 14:18:34;;;;;;;32.45;3.53;;;;;;;;;;5020185;28;20052;-31
2022/02/10 14:21:24;;;;;;;29.38;3.70;;;;;;;;;;5019210;28;20480;-31
2022/02/10 14:26:32;;;;;;;32.60;3.88;;;;;;;;;;5019361;28;20041;-31
2022/02/10 14:28:59;;;;;;;24.40;3.95;;;;;;;;;;5022014;28;20120;-33
2022/02/10 14:31:27;;;;;;;37.30;4.43;;;;;;;;;;5018588;28;20436;-32
2022/02/10 14:33:55;;;;;;;35.88;5.13;;;;;;;;;;5015205;28;20034;-33
2022/02/10 14:36:34;;;;;;;31.70;4.82;;;;;;;;;;5023878;28;20038;-34
2022/02/10 14:42:31;;;;;;;26.23;4.10;;;;;;;;;;4962113;28;20050;-31
2022/02/10 15:31:02;;;;;;;38.65;5.60;;;;;;;;;;5025133;28;20068;-34
2022/02/10 15:51:09;;;;;;;39.55;4.53;;;;;;;;;;5020823;28;20029;-37
2022/02/10 15:56:24;;;;;;;31.30;4.07;;;;;;;;;;5022638;28;20037;-36
2022/02/10 16:17:32;;;;;;;32.70;5.82;;;;;;;;;;5012496;28;20052;-31
2022/02/10 16:20:06;;;;;;;31.58;5.70;;;;;;;;;;5024206;28;20034;-32
2022/02/10 16:22:47;;;;;;;31.70;5.53;;;;;;;;;;5029198;28;20090;-32
2022/02/10 16:25:17;;;;;;;29.45;6.15;;;;;;;;;;5018317;28;20025;-33
2022/02/10 16:27:50;;;;;;;31.35;5.70;;;;;;;;;;5024012;28;20044;-32
2022/02/10 16:30:19;;;;;;;31.60;5.28;;;;;;;;;;5025922;28;20421;-33
2022/02/10 16:32:46;;;;;;;35.58;5.68;;;;;;;;;;5014971;28;20088;-33
2022/02/10 16:35:13;;;;;;;32.70;5.57;;;;;;;;;;5008506;28;20396;-32
2022/02/10 16:37:43;;;;;;;35.85;6.00;;;;;;;;;;5009274;28;20118;-31
2022/02/10 16:40:11;;;;;;;33.38;5.47;;;;;;;;;;5009387;28;20073;-34
2022/02/10 16:42:38;;;;;;;34.05;5.95;;;;;;;;;;5011994;28;20030;-38
2022/02/10 16:45:05;;;;;;;29.65;7.03;;;;;;;;;;5013083;28;20025;-32
2022/02/10 16:47:32;;;;;;;46.83;8.02;;;;;;;;;;5013814;28;20117;-32
2022/02/10 16:50:00;;;;;;;44.03;8.52;;;;;;;;;;5013556;28;20033;-32
2022/02/10 16:52:35;;;;;;;59.83;10.25;;;;;;;;;;5013538;28;20496;-31
2022/02/10 16:55:16;;;;;;;44.38;9.60;;;;;;;;;;5013197;28;20056;-33
2022/02/10 17:01:29;;;;;;;65.35;11.25;;;;;;;;;;5028652;28;20116;-36
2022/02/10 17:19:28;;;;;;;41.40;9.00;;;;;;;;;;5029799;28;20040;-32
2022/02/10 17:27:24;;;;;;;44.05;9.00;;;;;;;;;;5030116;28;20088;-35
2022/02/10 17:35:15;;;;;;;50.13;9.15;;;;;;;;;;5030557;28;20049;-37
2022/02/10 17:53:58;;;;;;;38.15;8.25;;;;;;;;;;5027694;28;20045;-38
2022/02/10 17:56:26;;;;;;;33.05;6.45;;;;;;;;;;5032087;28;20388;-34
2022/02/10 17:58:53;;;;;;;36.90;7.50;;;;;;;;;;5028615;28;20033;-29
2022/02/10 18:01:20;;;;;;;32.20;6.70;;;;;;;;;;5025613;28;20076;-31
2022/02/10 18:03:47;;;;;;;38.08;7.25;;;;;;;;;;5031716;28;20120;-35
2022/02/10 18:06:23;;;;;;;31.02;6.93;;;;;;;;;;5020753;28;20116;-31
2022/02/10 18:14:39;;;;;;;34.15;6.15;;;;;;;;;;5019764;28;20459;-34
2022/02/10 18:19:37;;;;;;;31.35;6.03;;;;;;;;;;5026505;28;20112;-31
2022/02/10 18:24:51;;;;;;;25.50;5.72;;;;;;;;;;5017624;28;20030;-32
2022/02/10 18:27:35;;;;;;;30.05;6.10;;;;;;;;;;5024667;28;20065;-35
2022/02/10 19:06:06;;;;;;;90.60;10.38;;;;;;;;;;5019802;28;20611;-37
2022/02/10 19:11:20;;;;;;;61.35;6.90;;;;;;;;;;5024354;28;20467;-38
2022/02/10 19:13:52;;;;;;;38.35;6.53;;;;;;;;;;5023404;28;20026;-35
2022/02/10 19:16:19;;;;;;;37.40;5.80;;;;;;;;;;5025961;28;20120;-36
2022/02/10 19:18:46;;;;;;;42.88;6.03;;;;;;;;;;5027267;28;20036;-36
2022/02/10 19:21:13;;;;;;;34.55;5.20;;;;;;;;;;5027790;28;20499;-36
2022/02/10 19:23:40;;;;;;;30.80;5.07;;;;;;;;;;5010670;28;20032;-36
2022/02/10 19:26:07;;;;;;;30.38;5.63;;;;;;;;;;5005189;28;20048;-35
2022/02/10 19:28:35;;;;;;;38.58;5.65;;;;;;;;;;5018748;28;20029;-33
2022/02/10 19:31:05;;;;;;;42.47;6.45;;;;;;;;;;5022611;28;20558;-42
2022/02/10 19:33:32;;;;;;;43.15;6.18;;;;;;;;;;5017225;28;20053;-39
2022/02/10 19:36:00;;;;;;;35.25;5.18;;;;;;;;;;5026967;28;20030;-34
2022/02/10 19:38:30;;;;;;;35.75;5.85;;;;;;;;;;5029017;28;20037;-38
2022/02/10 19:40:57;;;;;;;35.97;5.10;;;;;;;;;;5023348;28;20025;-41
2022/02/10 19:43:26;;;;;;;50.60;6.25;;;;;;;;;;5019919;28;20030;-36
2022/02/10 19:45:53;;;;;;;38.80;5.53;;;;;;;;;;5018427;28;20042;-38
2022/02/10 19:48:22;;;;;;;38.53;5.88;;;;;;;;;;5024211;28;20083;-33
2022/02/10 19:50:51;;;;;;;33.83;5.80;;;;;;;;;;5027742;28;20040;-35
2022/02/10 19:53:19;;;;;;;32.65;5.50;;;;;;;;;;5020736;28;20037;-37
2022/02/10 19:55:49;;;;;;;33.72;5.78;;;;;;;;;;5019230;28;20048;-34
2022/02/10 19:58:21;;;;;;;31.65;5.65;;;;;;;;;;5018365;28;20073;-34
2022/02/10 20:00:49;;;;;;;25.50;5.05;;;;;;;;;;5021942;28;20069;-34
2022/02/10 20:03:21;;;;;;;40.60;5.05;;;;;;;;;;5014981;28;20397;-37
2022/02/10 20:05:50;;;;;;;;;;;;;;;;;;5014397;28;20041;-31
2022/02/10 20:08:19;;;;;;;41.25;5.70;;;;;;;;;;5010447;28;19914;-34
2022/02/10 20:10:51;;;;;;;29.83;4.95;;;;;;;;;;5012426;28;20058;-38
2022/02/10 20:13:18;;;;;;;25.73;4.90;;;;;;;;;;5027776;28;20037;-33
2022/02/10 20:15:46;;;;;;;23.20;4.45;;;;;;;;;;5029341;28;20029;-36
2022/02/10 20:18:14;;;;;;;20.75;4.30;;;;;;;;;;5023292;28;20033;-32
2022/02/10 20:20:46;;;;;;;33.15;4.72;;;;;;;;;;5019424;28;20036;-33
2022/02/10 20:23:13;;;;;;;26.38;4.22;;;;;;;;;;5019388;28;20502;-32
2022/02/10 20:25:41;;;;;;;40.60;4.82;;;;;;;;;;5019071;28;20703;-35
2022/02/10 20:28:09;;;;;;;32.95;3.95;;;;;;;;;;5017470;28;20018;-33
2022/02/10 20:30:40;;;;;;;26.23;3.92;;;;;;;;;;5017870;28;20159;-32
2022/02/10 20:33:08;;;;;;;22.35;4.07;;;;;;;;;;5022522;28;20064;-32
2022/02/10 20:35:42;;;;;;;25.30;4.38;;;;;;;;;;5023359;28;20495;-37
2022/02/10 20:38:11;;;;;;;17.50;3.78;;;;;;;;;;5023216;28;20045;-32
2022/02/10 20:40:42;;;;;;;19.83;3.90;;;;;;;;;;5024106;28;20068;-34
2022/02/10 20:43:10;;;;;;;19.83;4.40;;;;;;;;;;5022306;28;20073;-34
2022/02/10 20:45:37;;;;;;;19.75;3.33;;;;;;;;;;5005577;28;20496;-36
2022/02/10 20:48:06;;;;;;;19.27;3.63;;;;;;;;;;5023304;28;20025;-32
2022/02/10 20:50:33;;;;;;;23.42;4.15;;;;;;;;;;5022367;28;20033;-37
2022/02/10 20:53:01;;;;;;;24.13;3.92;;;;;;;;;;5022919;28;20037;-35
2022/02/10 20:55:28;;;;;;;38.15;4.78;;;;;;;;;;5026273;28;20029;-38
2022/02/10 20:57:55;;;;;;;27.33;3.72;;;;;;;;;;5021700;28;20037;-32
2022/02/10 21:00:34;;;;;;;43.28;4.88;;;;;;;;;;5023206;28;20029;-35
2022/02/10 21:03:01;;;;;;;24.65;4.57;;;;;;;;;;4958950;28;20162;-31
2022/02/10 21:10:33;;;;;;;35.10;3.67;;;;;;;;;;4960465;28;20106;-33
2022/02/10 21:13:00;;;;;;;40.42;4.53;;;;;;;;;;4966095;28;20088;-32
2022/02/10 21:15:32;;;;;;;37.75;4.45;;;;;;;;;;4967864;28;20109;-32
2022/02/10 21:18:02;;;;;;;55.40;5.75;;;;;;;;;;4969330;28;20038;-30
2022/02/10 21:20:32;;;;;;;86.75;7.45;;;;;;;;;;4968793;28;20066;-30
2022/02/10 21:23:08;;;;;;;64.40;7.95;;;;;;;;;;4969671;28;20047;-31
2022/02/10 21:25:38;;;;;;;62.95;6.65;;;;;;;;;;4970422;28;20106;-33
2022/02/10 21:28:16;;;;;;;76.78;6.85;;;;;;;;;;4970584;28;20046;-33
2022/02/10 21:30:45;;;;;;;81.18;6.57;;;;;;;;;;4973389;28;20031;-31
2022/02/10 21:33:40;;;;;;;47.20;6.57;;;;;;;;;;4974294;28;20046;-31
2022/02/10 22:10:54;;;;;;;94.68;9.20;;;;;;;;;;4972962;28;20114;-32
2022/02/10 22:18:59;;;;;;;81.20;9.10;;;;;;;;;;4972328;28;20031;-31
2022/02/10 22:21:35;;;;;;;85.38;9.07;;;;;;;;;;4971833;28;20035;-32
2022/02/10 22:24:07;;;;;;;88.78;8.55;;;;;;;;;;4973216;28;20027;-32
2022/02/10 22:26:36;;;;;;;80.63;8.00;;;;;;;;;;4973553;28;20034;-32
2022/02/10 22:29:09;;;;;;;80.53;7.97;;;;;;;;;;4973328;28;20074;-32
2022/02/10 22:31:51;;;;;;;80.70;7.40;;;;;;;;;;4972749;28;20117;-31
2022/02/10 22:37:00;;;;;;;73.05;7.72;;;;;;;;;;4973150;28;20694;-31
2022/02/10 22:39:33;;;;;;;73.03;7.68;;;;;;;;;;4973302;28;21118;-31
2022/02/10 22:42:00;;;;;;;73.90;7.40;;;;;;;;;;4972982;28;20066;-31
2022/02/10 22:44:28;;;;;;;68.45;6.30;;;;;;;;;;4973164;28;20026;-31
2022/02/10 22:46:56;;;;;;;70.88;8.10;;;;;;;;;;4973019;28;20532;-31
2022/02/10 22:49:23;;;;;;;65.80;7.53;;;;;;;;;;4972511;28;20043;-31
2022/02/10 22:51:50;;;;;;;60.35;5.55;;;;;;;;;;4973361;28;20507;-31
2022/02/10 22:54:18;;;;;;;67.30;6.13;;;;;;;;;;4973392;28;20030;-31
2022/02/10 22:56:46;;;;;;;84.07;6.82;;;;;;;;;;4972797;28;20081;-31
2022/02/10 22:59:14;;;;;;;73.38;6.97;;;;;;;;;;4973394;28;20063;-31
2022/02/10 23:01:41;;;;;;;93.22;6.93;;;;;;;;;;4972582;28;20142;-31
2022/02/10 23:04:09;;;;;;;70.78;6.63;;;;;;;;;;4972831;28;20023;-31
2022/02/10 23:06:37;;;;;;;68.88;6.35;;;;;;;;;;4955977;28;20065;-31
2022/02/10 23:09:27;;;;;;;73.82;6.60;;;;;;;;;;4973332;28;20063;-30
2022/02/10 23:11:52;;;;;;;56.90;5.88;;;;;;;;;;4972080;28;20038;-31
2022/02/10 23:14:20;;;;;;;72.03;7.35;;;;;;;;;;4955871;28;20645;-31
2022/02/10 23:16:47;;;;;;;166.90;11.73;;;;;;;;;;4971045;28;20042;-32
2022/02/10 23:19:14;;;;;;;115.78;9.25;;;;;;;;;;4972462;28;20485;-32
2022/02/10 23:21:42;;;;;;;46.88;5.15;;;;;;;;;;4969999;28;20027;-31
2022/02/10 23:24:09;;;;;;;110.13;10.32;;;;;;;;;;4972165;28;20110;-31
2022/02/10 23:26:36;;;;;;;50.65;5.47;;;;;;;;;;4971683;28;20054;-31
2022/02/10 23:29:04;;;;;;;35.75;3.85;;;;;;;;;;4971666;28;20065;-32
2022/02/10 23:31:31;;;;;;;44.30;4.20;;;;;;;;;;4972227;28;20031;-31
2022/02/10 23:34:01;;;;;;;35.50;4.50;;;;;;;;;;4971347;28;20637;-32
2022/02/10 23:47:24;;;;;;;89.93;7.90;;;;;;;;;;4962100;28;20046;-31
2022/02/10 23:49:53;;;;;;;42.50;4.72;;;;;;;;;;4971873;28;20111;-31
2022/02/10 23:52:25;;;;;;;95.93;7.95;;;;;;;;;;4970120;28;20439;-32
2022/02/10 23:54:57;;;;;;;;;;;;;;;;;;4970263;28;20106;-33
